Time;durP1;ratioP1;P1;durP2;ratioP2;P2;SDS_P1;SDS_P2;PMS_P1;PMS_P2;Temp;Humidity;BMP_temperature;BMP_pressure;BME280_temperature;BME280_humidity;BME280_pressure;Samples;Min_cycle;Max_cycle;Signal;HPM_P1;HPM_P2
2022/11/12 00:00:54;;;;;;;27.27;20.75;;;9.30;99.90;;;;;;5055001;28;20017;-68
2022/11/12 00:03:20;;;;;;;38.70;27.30;;;9.30;99.90;;;;;;5054810;28;20407;-68
2022/11/12 00:05:48;;;;;;;41.40;30.10;;;9.20;99.90;;;;;;5054950;28;20021;-66
2022/11/12 00:08:14;;;;;;;33.38;26.25;;;9.10;99.90;;;;;;5054751;28;20025;-64
2022/11/12 00:10:40;;;;;;;37.28;26.88;;;9.10;99.90;;;;;;5054568;28;20041;-65
2022/11/12 00:13:05;;;;;;;30.95;24.20;;;9.10;99.90;;;;;;5054773;28;20082;-69
2022/11/12 00:15:31;;;;;;;48.08;31.38;;;9.10;99.90;;;;;;5053901;28;20017;-65
2022/11/12 00:17:57;;;;;;;63.75;43.33;;;9.10;99.90;;;;;;5054587;28;20032;-68
2022/11/12 00:20:22;;;;;;;47.28;33.20;;;9.10;99.90;;;;;;5054420;28;20521;-63
2022/11/12 00:22:48;;;;;;;52.38;34.33;;;9.10;99.90;;;;;;5054534;28;20024;-70
2022/11/12 00:25:14;;;;;;;39.15;28.90;;;9.00;99.90;;;;;;5054486;28;20364;-68
2022/11/12 00:27:39;;;;;;;39.78;30.40;;;9.00;99.90;;;;;;5054364;28;20083;-69
2022/11/12 00:30:06;;;;;;;32.63;24.33;;;9.00;99.90;;;;;;5054215;28;20103;-65
2022/11/12 00:32:34;;;;;;;38.50;27.65;;;8.90;99.90;;;;;;5054413;28;20032;-69
2022/11/12 00:35:00;;;;;;;30.40;23.05;;;8.90;99.90;;;;;;5054247;28;20027;-66
2022/11/12 00:37:26;;;;;;;28.10;21.25;;;9.00;99.90;;;;;;5054201;28;20025;-67
2022/11/12 00:39:51;;;;;;;27.23;20.83;;;8.90;99.90;;;;;;5054263;28;20053;-67
2022/11/12 00:42:17;;;;;;;24.05;18.33;;;8.90;99.90;;;;;;5054023;28;20017;-68
2022/11/12 00:44:43;;;;;;;20.50;17.10;;;8.90;99.90;;;;;;5053951;28;20029;-69
2022/11/12 00:47:08;;;;;;;22.98;17.75;;;8.80;99.90;;;;;;5054301;28;20036;-68
2022/11/12 00:49:34;;;;;;;23.23;17.17;;;8.90;99.90;;;;;;5054106;28;20529;-70
2022/11/12 00:51:59;;;;;;;19.33;15.88;;;8.90;99.90;;;;;;5053878;28;20060;-66
2022/11/12 00:54:25;;;;;;;16.95;14.73;;;8.90;99.90;;;;;;5054003;28;20025;-68
2022/11/12 00:56:51;;;;;;;19.40;15.25;;;8.90;99.90;;;;;;5053909;28;20025;-66
2022/11/12 00:59:16;;;;;;;23.45;18.17;;;9.00;99.90;;;;;;5053588;28;20028;-65
2022/11/12 01:01:42;;;;;;;16.55;13.85;;;9.00;99.90;;;;;;5053838;28;20071;-65
2022/11/12 01:04:08;;;;;;;19.75;14.77;;;9.00;99.90;;;;;;5052445;28;20438;-66
2022/11/12 01:06:37;;;;;;;18.88;15.75;;;9.00;99.90;;;;;;5053620;28;20107;-69
2022/11/12 01:09:03;;;;;;;18.92;15.82;;;9.00;99.90;;;;;;5053445;28;20024;-69
2022/11/12 01:11:29;;;;;;;20.55;16.17;;;9.00;99.90;;;;;;5053745;28;20531;-63
2022/11/12 01:13:58;;;;;;;22.88;17.35;;;9.00;99.90;;;;;;5053390;28;20021;-70
2022/11/12 01:16:27;;;;;;;23.38;17.25;;;9.10;99.90;;;;;;5053621;28;20024;-70
2022/11/12 01:18:54;;;;;;;21.77;16.85;;;9.00;99.90;;;;;;5053567;28;20487;-63
2022/11/12 01:21:22;;;;;;;19.83;15.80;;;9.00;99.90;;;;;;5053388;28;20017;-69
2022/11/12 01:23:48;;;;;;;19.65;16.00;;;9.00;99.90;;;;;;5053386;28;20025;-67
2022/11/12 01:26:16;;;;;;;20.65;16.20;;;9.00;99.90;;;;;;5052814;28;20036;-65
2022/11/12 01:28:42;;;;;;;20.67;15.90;;;9.10;99.90;;;;;;5052990;28;20464;-67
2022/11/12 01:31:25;;;;;;;20.33;15.45;;;9.00;99.90;;;;;;5053711;28;20475;-66
2022/11/12 01:33:56;;;;;;;17.60;14.37;;;9.00;99.90;;;;;;5053293;28;20025;-67
2022/11/12 01:36:24;;;;;;;18.20;14.82;;;9.00;99.90;;;;;;5053313;28;20017;-70
2022/11/12 01:38:51;;;;;;;17.73;13.25;;;9.10;99.90;;;;;;5053276;28;20487;-66
2022/11/12 01:41:23;;;;;;;16.83;13.60;;;9.00;99.90;;;;;;5052980;28;20380;-66
2022/11/12 01:44:19;;;;;;;16.33;13.00;;;9.00;99.90;;;;;;5053188;28;20367;-65
2022/11/12 01:47:11;;;;;;;16.98;12.73;;;9.10;99.90;;;;;;5053212;28;20476;-66
2022/11/12 01:49:43;;;;;;;13.40;11.50;;;9.10;99.90;;;;;;5053047;28;20013;-66
2022/11/12 01:52:33;;;;;;;12.82;10.20;;;9.10;99.90;;;;;;5053203;28;20052;-68
2022/11/12 01:55:07;;;;;;;14.40;10.95;;;9.10;99.90;;;;;;5053007;28;20490;-65
2022/11/12 01:57:43;;;;;;;11.90;10.40;;;9.10;99.90;;;;;;5052912;28;20021;-69
2022/11/12 02:00:12;;;;;;;14.02;10.15;;;9.10;99.90;;;;;;5053011;28;20021;-65
2022/11/12 02:02:39;;;;;;;13.30;10.65;;;9.10;99.90;;;;;;5052867;28;20540;-67
2022/11/12 02:05:09;;;;;;;14.68;11.02;;;9.10;99.90;;;;;;5053095;28;20106;-68
2022/11/12 02:07:38;;;;;;;11.73;9.82;;;9.20;99.90;;;;;;5052888;28;20022;-66
2022/11/12 02:10:06;;;;;;;13.98;11.38;;;9.10;99.90;;;;;;5052709;28;20053;-63
2022/11/12 02:15:17;;;;;;;14.90;11.75;;;9.10;99.90;;;;;;5053255;28;20055;-63
2022/11/12 02:17:42;;;;;;;11.40;10.15;;;9.00;99.90;;;;;;5052893;28;20108;-69
2022/11/12 02:20:11;;;;;;;12.18;10.00;;;9.00;99.90;;;;;;5052838;28;20021;-68
2022/11/12 02:22:36;;;;;;;15.15;11.73;;;9.10;99.90;;;;;;5052783;28;20484;-65
2022/11/12 02:25:02;;;;;;;17.85;12.68;;;9.00;99.90;;;;;;5052682;28;20021;-63
2022/11/12 02:27:28;;;;;;;21.48;16.27;;;9.10;99.90;;;;;;5052776;28;20021;-68
2022/11/12 02:29:54;;;;;;;12.77;10.88;;;9.10;99.90;;;;;;5052940;28;20037;-66
2022/11/12 02:32:20;;;;;;;13.00;10.45;;;9.10;99.90;;;;;;5052745;28;20025;-63
2022/11/12 02:34:45;;;;;;;12.38;10.57;;;9.10;99.90;;;;;;5051615;28;20021;-66
2022/11/12 02:37:11;;;;;;;12.70;10.70;;;9.10;99.90;;;;;;5052673;28;20079;-71
2022/11/12 02:39:37;;;;;;;19.63;13.85;;;9.10;99.90;;;;;;5055821;28;20468;-71
2022/11/12 02:42:02;;;;;;;17.50;13.43;;;9.10;99.90;;;;;;5056487;28;20018;-65
2022/11/12 02:44:29;;;;;;;11.60;10.25;;;9.10;99.90;;;;;;5056242;28;20021;-67
2022/11/12 02:46:55;;;;;;;13.20;10.27;;;9.10;99.90;;;;;;5056378;28;20033;-70
2022/11/12 02:49:21;;;;;;;15.00;11.35;;;9.10;99.90;;;;;;5056274;28;20025;-71
2022/11/12 02:51:47;;;;;;;13.90;11.20;;;9.10;99.90;;;;;;5056173;28;20029;-68
2022/11/12 02:54:12;;;;;;;10.85;9.10;;;9.20;99.90;;;;;;5056042;28;20025;-66
2022/11/12 02:56:38;;;;;;;11.57;8.90;;;9.10;99.90;;;;;;5056209;28;20383;-68
2022/11/12 02:59:03;;;;;;;10.73;9.45;;;9.10;99.90;;;;;;5056060;28;20029;-67
2022/11/12 03:01:29;;;;;;;10.95;9.85;;;9.10;99.90;;;;;;5056165;28;20032;-70
2022/11/12 03:03:55;;;;;;;11.00;9.73;;;9.10;99.90;;;;;;5056147;28;20075;-66
2022/11/12 03:06:20;;;;;;;13.57;11.27;;;9.10;99.90;;;;;;5056037;28;20025;-68
2022/11/12 03:08:46;;;;;;;12.93;10.57;;;9.20;99.90;;;;;;5055697;28;20021;-67
2022/11/12 03:11:14;;;;;;;11.35;9.75;;;9.20;99.90;;;;;;5055785;28;20045;-64
2022/11/12 03:13:40;;;;;;;15.35;11.10;;;9.20;99.90;;;;;;5055806;28;20029;-68
2022/11/12 03:16:06;;;;;;;13.38;10.57;;;9.10;99.90;;;;;;5055994;28;20528;-67
2022/11/12 03:18:32;;;;;;;12.60;11.05;;;9.20;99.90;;;;;;5055799;28;20029;-68
2022/11/12 03:20:58;;;;;;;14.60;10.95;;;9.20;99.90;;;;;;5055735;28;20017;-67
2022/11/12 03:23:25;;;;;;;18.30;13.35;;;9.20;99.90;;;;;;5055238;28;20036;-68
2022/11/12 03:25:51;;;;;;;37.00;25.70;;;9.20;99.90;;;;;;5055728;28;20032;-66
2022/11/12 03:28:17;;;;;;;53.75;38.55;;;9.30;99.90;;;;;;5055615;28;20025;-70
2022/11/12 03:30:43;;;;;;;46.97;32.80;;;9.20;99.90;;;;;;5055459;28;20023;-64
2022/11/12 03:33:11;;;;;;;33.92;25.77;;;9.10;99.90;;;;;;5055570;28;20040;-65
2022/11/12 03:35:37;;;;;;;39.55;28.92;;;9.00;99.90;;;;;;5055405;28;20475;-67
2022/11/12 03:38:04;;;;;;;40.60;29.00;;;9.10;99.90;;;;;;5055462;28;20025;-64
2022/11/12 03:40:31;;;;;;;33.22;24.35;;;9.10;99.90;;;;;;5055350;28;20463;-70
2022/11/12 03:42:57;;;;;;;38.08;26.70;;;9.10;99.90;;;;;;5055227;28;20036;-70
2022/11/12 03:45:24;;;;;;;30.75;23.55;;;9.10;99.90;;;;;;5055152;28;20069;-66
2022/11/12 03:47:53;;;;;;;30.75;22.63;;;9.20;99.90;;;;;;5055204;28;20018;-68
2022/11/12 03:50:22;;;;;;;24.60;17.98;;;9.10;99.90;;;;;;5054348;28;20024;-65
2022/11/12 03:52:50;;;;;;;20.98;16.52;;;9.00;99.90;;;;;;5054937;28;20025;-70
2022/11/12 03:55:18;;;;;;;20.42;16.17;;;9.00;99.90;;;;;;5055142;28;20021;-69
2022/11/12 03:57:44;;;;;;;17.42;13.85;;;9.00;99.90;;;;;;5055013;28;20071;-69
2022/11/12 04:00:11;;;;;;;18.30;14.38;;;9.00;99.90;;;;;;5054926;28;20021;-63
2022/11/12 04:02:37;;;;;;;17.17;13.70;;;9.10;99.90;;;;;;5054941;28;20079;-69
2022/11/12 04:10:38;;;;;;;26.33;19.85;;;9.10;99.90;;;;;;5054614;28;20055;-68
2022/11/12 04:21:49;;;;;;;;;;;9.00;99.90;;;;;;5055086;28;20548;-69
2022/11/12 04:24:02;;;;;;;17.63;14.82;;;8.80;99.90;;;;;;5054547;28;20035;-64
2022/11/12 04:26:27;;;;;;;19.38;16.92;;;8.90;99.90;;;;;;5054601;28;20080;-68
2022/11/12 04:31:37;;;;;;;;;;;8.90;99.90;;;;;;5054829;28;20143;-65
2022/11/12 04:36:47;;;;;;;21.60;16.05;;;9.00;99.90;;;;;;5054128;28;20032;-67
2022/11/12 04:39:13;;;;;;;22.85;17.20;;;9.00;99.90;;;;;;5054153;28;20025;-66
2022/11/12 04:47:06;;;;;;;;;;;9.00;99.90;;;;;;5054627;28;20121;-63
2022/11/12 04:49:32;;;;;;;28.23;20.80;;;9.10;99.90;;;;;;5053848;28;19963;-65
2022/11/12 04:52:03;;;;;;;19.92;16.30;;;9.10;99.90;;;;;;5054041;28;20033;-67
2022/11/12 04:54:29;;;;;;;24.77;18.55;;;9.10;99.90;;;;;;5053944;28;20025;-65
2022/11/12 04:56:55;;;;;;;22.98;18.05;;;9.10;99.90;;;;;;5054031;28;20383;-66
2022/11/12 04:59:20;;;;;;;19.67;15.82;;;9.10;99.90;;;;;;5053984;28;20100;-71
2022/11/12 05:01:46;;;;;;;19.83;15.98;;;9.10;99.90;;;;;;5053799;28;20049;-66
2022/11/12 05:04:12;;;;;;;20.80;16.17;;;9.00;99.90;;;;;;5053572;28;20029;-69
2022/11/12 05:06:50;;;;;;;25.63;18.13;;;9.10;99.90;;;;;;5053637;28;20387;-64
2022/11/12 05:09:16;;;;;;;29.75;21.77;;;9.10;99.90;;;;;;5053571;28;20056;-65
2022/11/12 05:11:41;;;;;;;25.08;19.73;;;9.10;99.90;;;;;;5053609;28;20111;-69
2022/11/12 05:14:07;;;;;;;21.42;17.30;;;9.10;99.90;;;;;;5053689;28;20029;-66
2022/11/12 05:16:32;;;;;;;18.20;15.15;;;9.10;99.90;;;;;;5053748;28;20048;-66
2022/11/12 05:18:58;;;;;;;17.45;15.18;;;9.10;99.90;;;;;;5053449;28;20029;-66
2022/11/12 05:24:08;;;;;;;18.42;14.93;;;9.10;99.90;;;;;;5053441;28;20501;-68
2022/11/12 05:26:34;;;;;;;17.02;14.80;;;9.10;99.90;;;;;;5053393;28;20103;-66
2022/11/12 05:28:59;;;;;;;20.20;15.88;;;9.10;99.90;;;;;;5053404;28;20104;-63
2022/11/12 05:31:25;;;;;;;19.40;15.13;;;9.10;99.90;;;;;;5053343;28;20105;-63
2022/11/12 05:33:51;;;;;;;19.67;15.27;;;9.20;99.90;;;;;;5053093;28;20041;-68
2022/11/12 05:36:16;;;;;;;36.17;24.88;;;9.20;99.90;;;;;;5053231;28;20021;-65
2022/11/12 05:38:42;;;;;;;71.55;48.35;;;9.20;99.90;;;;;;5053320;28;20021;-64
2022/11/12 05:41:08;;;;;;;42.33;30.02;;;9.20;99.90;;;;;;5053243;28;20057;-66
2022/11/12 05:43:33;;;;;;;53.63;37.28;;;9.10;99.90;;;;;;5053367;28;20120;-66
2022/11/12 05:45:59;;;;;;;42.45;32.03;;;9.10;99.90;;;;;;5053140;28;20479;-65
2022/11/12 05:48:24;;;;;;;51.17;36.90;;;9.10;99.90;;;;;;5051743;28;20120;-66
2022/11/12 05:50:51;;;;;;;50.75;35.67;;;9.10;99.90;;;;;;5053139;28;20053;-70
2022/11/12 05:53:17;;;;;;;36.72;29.38;;;9.10;99.90;;;;;;5053171;28;20552;-68
2022/11/12 05:55:42;;;;;;;35.25;25.92;;;9.10;99.90;;;;;;5053084;28;20021;-66
2022/11/12 05:58:08;;;;;;;33.80;24.13;;;9.10;99.90;;;;;;5052962;28;20021;-66
2022/11/12 06:00:40;;;;;;;28.63;22.15;;;9.20;99.90;;;;;;5053082;28;20032;-68
2022/11/12 06:03:07;;;;;;;28.52;21.17;;;9.20;99.90;;;;;;5052780;28;20036;-65
2022/11/12 06:05:33;;;;;;;28.80;21.33;;;9.30;99.90;;;;;;5053015;28;20029;-68
2022/11/12 06:07:59;;;;;;;20.02;16.50;;;9.30;99.90;;;;;;5052963;28;20494;-70
2022/11/12 06:10:25;;;;;;;21.48;16.88;;;9.30;99.90;;;;;;5052890;28;20569;-65
2022/11/12 06:12:51;;;;;;;21.98;17.33;;;9.30;99.90;;;;;;5053287;28;20029;-67
2022/11/12 06:15:17;;;;;;;18.55;15.32;;;9.40;99.90;;;;;;5056810;28;20025;-67
2022/11/12 06:17:42;;;;;;;44.53;31.23;;;9.40;99.90;;;;;;5056780;28;20021;-68
2022/11/12 06:20:09;;;;;;;43.58;31.67;;;9.40;99.90;;;;;;5056795;28;20022;-68
2022/11/12 06:22:35;;;;;;;25.67;21.25;;;9.40;99.90;;;;;;5056732;28;20025;-68
2022/11/12 06:25:00;;;;;;;25.25;20.55;;;9.40;99.90;;;;;;5056850;28;20029;-69
2022/11/12 06:27:26;;;;;;;25.73;19.90;;;9.40;99.90;;;;;;5056685;28;20025;-67
2022/11/12 06:29:52;;;;;;;30.30;23.38;;;9.40;99.90;;;;;;5056762;28;20031;-65
2022/11/12 06:32:18;;;;;;;32.15;25.58;;;9.50;99.90;;;;;;5056513;28;20150;-71
2022/11/12 06:34:43;;;;;;;25.48;20.17;;;9.50;99.90;;;;;;5056608;28;20029;-64
2022/11/12 06:37:09;;;;;;;23.42;18.73;;;9.50;99.90;;;;;;5056448;28;20053;-68
2022/11/12 06:39:35;;;;;;;24.20;19.48;;;9.60;99.90;;;;;;5056631;28;20075;-66
2022/11/12 06:42:01;;;;;;;26.40;22.55;;;9.60;99.90;;;;;;5056521;28;20017;-68
2022/11/12 06:44:27;;;;;;;37.83;28.42;;;9.50;99.90;;;;;;5056531;28;20496;-65
2022/11/12 06:46:53;;;;;;;32.33;25.20;;;9.50;99.90;;;;;;5056286;28;20108;-65
2022/11/12 06:49:19;;;;;;;31.42;25.38;;;9.50;99.90;;;;;;5056446;28;20025;-70
2022/11/12 06:51:44;;;;;;;31.13;24.23;;;9.50;99.90;;;;;;5056523;28;20028;-62
2022/11/12 06:54:10;;;;;;;36.83;28.48;;;9.50;99.90;;;;;;5056262;28;20029;-68
2022/11/12 06:56:35;;;;;;;37.22;28.52;;;9.60;99.90;;;;;;5056153;28;20032;-66
2022/11/12 06:59:01;;;;;;;36.65;27.60;;;9.40;99.90;;;;;;5056120;28;20024;-66
2022/11/12 07:01:27;;;;;;;27.95;23.63;;;9.50;99.90;;;;;;5055847;28;20119;-69
2022/11/12 07:03:53;;;;;;;26.58;20.65;;;9.60;99.90;;;;;;5056013;28;20025;-63
2022/11/12 07:06:19;;;;;;;23.80;20.75;;;9.70;99.90;;;;;;5056083;28;20029;-65
2022/11/12 07:08:46;;;;;;;24.80;20.58;;;9.80;99.90;;;;;;5055935;28;20029;-70
2022/11/12 07:11:12;;;;;;;23.23;19.10;;;9.90;99.90;;;;;;5055838;28;20405;-63
2022/11/12 07:13:38;;;;;;;18.48;15.68;;;10.00;99.90;;;;;;5056015;28;20104;-65
2022/11/12 07:16:05;;;;;;;20.35;16.45;;;10.10;99.90;;;;;;5055529;28;20029;-65
2022/11/12 07:18:32;;;;;;;17.17;15.10;;;10.20;99.90;;;;;;5055871;28;20444;-68
2022/11/12 07:21:05;;;;;;;16.15;13.77;;;10.30;99.90;;;;;;5055706;28;20104;-71
2022/11/12 07:23:32;;;;;;;18.50;15.30;;;10.40;99.90;;;;;;5055867;28;20033;-69
2022/11/12 07:26:00;;;;;;;16.42;13.73;;;10.50;99.90;;;;;;5054399;28;20029;-69
2022/11/12 07:28:27;;;;;;;16.50;13.65;;;10.50;99.90;;;;;;5055593;28;20467;-65
2022/11/12 07:31:00;;;;;;;19.63;15.50;;;10.50;99.90;;;;;;5055612;28;20029;-66
2022/11/12 07:33:27;;;;;;;22.35;17.73;;;10.70;99.90;;;;;;5055595;28;20025;-65
2022/11/12 07:36:17;;;;;;;23.48;17.77;;;11.00;99.90;;;;;;5055636;28;20030;-66
2022/11/12 07:38:44;;;;;;;16.02;14.07;;;11.10;99.90;;;;;;5054872;28;20039;-69
2022/11/12 07:41:15;;;;;;;16.38;14.52;;;11.20;99.90;;;;;;5055352;28;20504;-67
2022/11/12 07:43:42;;;;;;;15.15;13.55;;;11.30;99.90;;;;;;5055113;28;20065;-68
2022/11/12 07:46:14;;;;;;;15.65;14.02;;;11.40;99.90;;;;;;5055359;28;20025;-66
2022/11/12 07:48:40;;;;;;;17.33;14.65;;;11.40;99.90;;;;;;5055197;28;20382;-68
2022/11/12 07:51:07;;;;;;;18.17;15.70;;;11.40;99.90;;;;;;5055431;28;20551;-67
2022/11/12 07:53:33;;;;;;;15.27;13.77;;;11.40;99.90;;;;;;5055261;28;20025;-63
2022/11/12 07:56:01;;;;;;;13.77;12.32;;;11.40;99.90;;;;;;5055151;28;20021;-64
2022/11/12 07:58:29;;;;;;;14.68;13.20;;;11.30;99.90;;;;;;5055030;28;20036;-68
2022/11/12 08:00:55;;;;;;;15.55;13.82;;;11.40;99.90;;;;;;5055048;28;20034;-68
2022/11/12 08:03:21;;;;;;;16.67;14.77;;;11.50;99.90;;;;;;5054791;28;20483;-67
2022/11/12 08:05:46;;;;;;;17.63;15.55;;;11.50;99.90;;;;;;5055015;28;20025;-66
2022/11/12 08:08:12;;;;;;;17.15;15.35;;;11.60;99.90;;;;;;5054870;28;20079;-68
2022/11/12 08:10:38;;;;;;;17.35;15.05;;;11.70;99.90;;;;;;5054626;28;20040;-66
2022/11/12 08:13:04;;;;;;;17.23;14.45;;;11.80;99.90;;;;;;5054917;28;20028;-66
2022/11/12 08:15:31;;;;;;;21.58;18.20;;;12.00;99.90;;;;;;5054793;28;20364;-64
2022/11/12 08:17:56;;;;;;;19.15;16.23;;;12.10;99.90;;;;;;5054602;28;20056;-64
2022/11/12 08:20:22;;;;;;;18.05;16.02;;;12.00;99.90;;;;;;5054631;28;20063;-68
2022/11/12 08:22:48;;;;;;;21.33;18.40;;;12.00;99.90;;;;;;5054660;28;20076;-69
2022/11/12 08:25:14;;;;;;;22.45;20.05;;;12.10;99.90;;;;;;5054610;28;20028;-66
2022/11/12 08:27:40;;;;;;;20.10;16.98;;;12.10;99.90;;;;;;5054245;28;20024;-66
2022/11/12 08:30:06;;;;;;;18.80;15.73;;;12.10;99.90;;;;;;5054563;28;20410;-70
2022/11/12 08:32:32;;;;;;;15.68;13.23;;;12.10;99.90;;;;;;5054311;28;20025;-66
2022/11/12 08:34:58;;;;;;;15.10;13.50;;;12.30;99.90;;;;;;5054289;28;20502;-70
2022/11/12 08:37:23;;;;;;;13.63;12.23;;;12.50;99.90;;;;;;5053875;28;20055;-65
2022/11/12 08:39:49;;;;;;;20.30;17.58;;;13.10;99.90;;;;;;5054341;28;20095;-66
2022/11/12 08:42:15;;;;;;;17.20;15.50;;;13.70;99.90;;;;;;5053947;28;20440;-66
2022/11/12 08:44:40;;;;;;;17.20;14.77;;;14.10;99.90;;;;;;5054209;28;20399;-65
2022/11/12 08:47:06;;;;;;;16.55;14.68;;;14.30;99.90;;;;;;5054100;28;20032;-64
2022/11/12 08:49:31;;;;;;;16.85;15.05;;;14.30;99.90;;;;;;5053952;28;20025;-67
2022/11/12 08:51:57;;;;;;;16.92;14.82;;;14.30;99.90;;;;;;5054222;28;20147;-65
2022/11/12 08:54:23;;;;;;;15.07;13.50;;;14.20;99.90;;;;;;5054037;28;20025;-64
2022/11/12 08:56:49;;;;;;;15.27;13.77;;;14.10;99.90;;;;;;5053835;28;20040;-66
2022/11/12 08:59:15;;;;;;;14.68;13.30;;;14.20;99.90;;;;;;5053862;28;20067;-65
2022/11/12 09:01:41;;;;;;;16.85;14.68;;;14.50;99.90;;;;;;5053917;28;20044;-69
2022/11/12 09:04:07;;;;;;;17.65;15.60;;;14.80;99.90;;;;;;5053830;28;20447;-62
2022/11/12 09:06:32;;;;;;;20.65;18.45;;;14.90;99.90;;;;;;5053686;28;20055;-64
2022/11/12 09:08:58;;;;;;;24.48;21.88;;;15.10;99.90;;;;;;5053922;28;20052;-67
2022/11/12 09:11:24;;;;;;;27.48;22.63;;;15.30;99.90;;;;;;5053262;28;20457;-67
2022/11/12 09:13:52;;;;;;;22.00;19.83;;;15.30;99.90;;;;;;5053517;28;20033;-65
2022/11/12 09:16:20;;;;;;;22.73;20.27;;;15.30;99.90;;;;;;5053528;28;20491;-70
2022/11/12 09:18:47;;;;;;;19.92;17.83;;;15.20;99.90;;;;;;5053631;28;20021;-67
2022/11/12 09:21:13;;;;;;;20.27;18.13;;;15.30;99.90;;;;;;5053518;28;20025;-67
2022/11/12 09:23:38;;;;;;;18.80;16.70;;;15.40;99.90;;;;;;5053417;28;20033;-69
2022/11/12 09:26:05;;;;;;;18.20;16.23;;;15.50;99.90;;;;;;5053247;28;20372;-64
2022/11/12 09:28:31;;;;;;;21.05;18.55;;;15.70;99.90;;;;;;5053378;28;20017;-68
2022/11/12 09:30:57;;;;;;;25.73;21.23;;;15.70;99.90;;;;;;5053372;28;20017;-64
2022/11/12 09:33:30;;;;;;;21.10;18.88;;;15.60;99.90;;;;;;5053396;28;20051;-67
2022/11/12 09:36:00;;;;;;;20.17;18.08;;;15.70;99.90;;;;;;5053322;28;20070;-69
2022/11/12 09:38:25;;;;;;;23.90;20.05;;;15.90;99.90;;;;;;5053323;28;20048;-63
2022/11/12 09:40:51;;;;;;;19.92;17.92;;;15.90;99.10;;;;;;5053137;28;20446;-69
2022/11/12 09:43:28;;;;;;;19.45;17.35;;;15.80;99.90;;;;;;5053025;28;20386;-66
2022/11/12 09:45:59;;;;;;;24.58;20.17;;;15.90;99.80;;;;;;5053248;28;20021;-67
2022/11/12 09:48:35;;;;;;;16.92;15.32;;;15.90;99.10;;;;;;5052432;28;20017;-64
2022/11/12 09:51:29;;;;;;;19.63;17.63;;;15.90;99.10;;;;;;5053195;28;20017;-69
2022/11/12 09:54:19;;;;;;;23.00;20.50;;;16.00;99.90;;;;;;5052411;28;20044;-66
2022/11/12 09:56:47;;;;;;;27.33;21.88;;;16.20;98.30;;;;;;5052503;28;20111;-65
2022/11/12 09:59:13;;;;;;;32.50;27.10;;;16.10;99.20;;;;;;5053284;28;20025;-67
2022/11/12 10:01:54;;;;;;;36.90;29.98;;;16.10;97.80;;;;;;5053148;28;20029;-68
2022/11/12 10:04:57;;;;;;;27.73;24.02;;;15.90;99.40;;;;;;5052912;28;20121;-64
2022/11/12 10:07:54;;;;;;;23.17;20.67;;;16.00;99.20;;;;;;5053065;28;20025;-68
2022/11/12 10:10:29;;;;;;;23.83;20.70;;;16.30;98.80;;;;;;5052765;28;20056;-68
2022/11/12 10:13:06;;;;;;;22.67;20.30;;;16.70;99.90;;;;;;5052857;28;20029;-68
2022/11/12 10:18:55;;;;;;;24.77;21.02;;;17.20;95.30;;;;;;5053074;28;20032;-69
2022/11/12 10:21:54;;;;;;;21.45;19.00;;;17.50;88.30;;;;;;5052879;28;20021;-65
2022/11/12 10:24:21;;;;;;;16.42;14.65;;;17.40;91.90;;;;;;5052564;28;20025;-71
2022/11/12 10:26:47;;;;;;;14.65;13.10;;;17.20;90.40;;;;;;5052961;28;20082;-65
2022/11/12 10:29:24;;;;;;;13.88;12.48;;;16.90;90.70;;;;;;5052876;28;20406;-62
2022/11/12 10:31:49;;;;;;;24.83;20.58;;;17.20;92.00;;;;;;5052711;28;20024;-66
2022/11/12 10:34:17;;;;;;;21.20;17.98;;;17.40;86.40;;;;;;5052731;28;20112;-68
2022/11/12 10:36:49;;;;;;;19.65;17.65;;;17.40;87.90;;;;;;5052766;28;20048;-67
2022/11/12 10:39:33;;;;;;;18.85;16.98;;;17.50;87.80;;;;;;5052510;28;20025;-66
2022/11/12 10:42:10;;;;;;;21.92;19.52;;;17.90;83.90;;;;;;5052739;28;20112;-67
2022/11/12 10:44:38;;;;;;;18.17;16.05;;;17.70;84.60;;;;;;5052607;28;20027;-69
2022/11/12 10:47:24;;;;;;;17.30;15.60;;;17.50;85.10;;;;;;5052667;28;20092;-69
2022/11/12 10:50:01;;;;;;;16.58;14.98;;;17.60;85.80;;;;;;5052681;28;20029;-65
2022/11/12 10:52:27;;;;;;;15.90;14.30;;;17.90;81.30;;;;;;5052478;28;20483;-67
2022/11/12 10:55:11;;;;;;;15.35;13.77;;;17.80;83.60;;;;;;5052533;28;20067;-65
2022/11/12 10:57:37;;;;;;;17.17;14.45;;;17.80;84.30;;;;;;5052511;28;20032;-64
2022/11/12 11:00:06;;;;;;;15.68;14.10;;;17.80;86.30;;;;;;5054637;28;20025;-68
2022/11/12 11:02:32;;;;;;;15.98;14.48;;;17.60;85.10;;;;;;5056113;28;20029;-69
2022/11/12 11:04:57;;;;;;;19.00;17.05;;;17.60;84.60;;;;;;5056151;28;20027;-67
2022/11/12 11:07:24;;;;;;;16.90;14.75;;;17.60;83.40;;;;;;5055908;28;20025;-67
2022/11/12 11:10:03;;;;;;;17.27;15.50;;;17.90;90.80;;;;;;5056124;28;20377;-66
2022/11/12 11:12:31;;;;;;;16.98;15.23;;;18.30;83.90;;;;;;5055911;28;20478;-64
2022/11/12 11:15:18;;;;;;;14.75;13.25;;;18.30;84.80;;;;;;5054467;28;20082;-71
2022/11/12 11:17:44;;;;;;;18.38;14.95;;;18.10;80.40;;;;;;5055957;28;20033;-68
2022/11/12 11:20:28;;;;;;;15.88;14.27;;;17.90;83.30;;;;;;5055785;28;20101;-66
2022/11/12 11:23:02;;;;;;;18.27;15.02;;;17.60;85.90;;;;;;5055529;28;20064;-70
2022/11/12 11:25:30;;;;;;;12.90;11.60;;;17.40;87.40;;;;;;5055541;28;20021;-68
2022/11/12 11:28:02;;;;;;;13.02;11.73;;;17.50;89.00;;;;;;5055605;28;20029;-71
2022/11/12 11:30:28;;;;;;;14.10;12.07;;;17.70;90.30;;;;;;5055886;28;20138;-69
2022/11/12 11:33:13;;;;;;;13.18;11.75;;;17.70;87.10;;;;;;5055610;28;20104;-70
2022/11/12 11:36:25;;;;;;;12.73;11.43;;;17.80;91.00;;;;;;5055384;28;20108;-70
2022/11/12 11:39:41;;;;;;;12.32;10.68;;;17.90;85.10;;;;;;5055495;28;20474;-66
2022/11/12 11:42:45;;;;;;;10.35;9.35;;;18.20;86.20;;;;;;5053274;28;20025;-66
2022/11/12 11:45:31;;;;;;;;;;;18.70;81.60;;;;;;5055838;28;20437;-65
2022/11/12 11:48:10;;;;;;;10.48;9.48;;;18.80;78.90;;;;;;5055315;28;20366;-66
2022/11/12 11:50:45;;;;;;;11.75;9.48;;;19.10;86.30;;;;;;5054983;28;20048;-66
2022/11/12 11:53:17;;;;;;;9.80;8.80;;;19.30;75.30;;;;;;5055319;28;20554;-68
2022/11/12 11:55:56;;;;;;;8.80;7.90;;;19.20;78.30;;;;;;5053834;28;20367;-69
2022/11/12 11:58:33;;;;;;;8.50;7.68;;;19.20;78.70;;;;;;5055211;28;20021;-69
2022/11/12 12:01:40;;;;;;;8.90;8.10;;;19.20;76.50;;;;;;5055072;28;20067;-66
2022/11/12 12:04:39;;;;;;;8.27;7.47;;;19.40;76.70;;;;;;5054605;28;20037;-65
2022/11/12 12:07:47;;;;;;;7.30;6.70;;;19.70;73.20;;;;;;5055078;28;20031;-66
2022/11/12 12:10:29;;;;;;;7.93;7.22;;;19.90;78.70;;;;;;5054363;28;20048;-70
2022/11/12 12:13:13;;;;;;;7.15;6.53;;;20.30;74.10;;;;;;5054889;28;20025;-68
2022/11/12 12:15:56;;;;;;;8.23;7.55;;;20.60;72.00;;;;;;5054685;28;20151;-68
2022/11/12 12:18:43;;;;;;;8.40;7.60;;;20.70;70.30;;;;;;5054895;28;20028;-64
2022/11/12 12:21:15;;;;;;;8.32;7.53;;;20.70;70.50;;;;;;5054387;28;20021;-65
2022/11/12 12:23:54;;;;;;;8.50;7.70;;;20.60;67.30;;;;;;5054546;28;20040;-67
2022/11/12 12:26:47;;;;;;;7.78;7.07;;;20.60;66.30;;;;;;5054509;28;20031;-68
2022/11/12 12:29:23;;;;;;;6.30;5.70;;;20.60;67.90;;;;;;5054519;28;20029;-65
2022/11/12 12:32:12;;;;;;;5.57;5.07;;;20.50;64.80;;;;;;5054425;28;20025;-69
2022/11/12 12:34:43;;;;;;;4.75;4.32;;;20.40;62.40;;;;;;5054247;28;20414;-65
2022/11/12 12:37:14;;;;;;;4.82;4.07;;;20.60;62.20;;;;;;5054323;28;20029;-68
2022/11/12 12:40:06;;;;;;;4.05;3.75;;;20.50;63.50;;;;;;5054352;28;20021;-65
2022/11/12 12:42:35;;;;;;;4.18;3.80;;;20.40;65.20;;;;;;5054261;28;20463;-70
2022/11/12 12:45:37;;;;;;;5.13;4.22;;;20.40;66.70;;;;;;5054257;28;20029;-69
2022/11/12 12:48:06;;;;;;;4.80;4.30;;;20.40;64.80;;;;;;5053579;28;20037;-68
2022/11/12 12:50:37;;;;;;;4.20;3.80;;;20.20;66.00;;;;;;5054001;28;20033;-66
2022/11/12 12:53:24;;;;;;;5.32;4.63;;;20.10;64.00;;;;;;5054195;28;20021;-65
2022/11/12 12:55:52;;;;;;;5.00;4.13;;;20.00;63.80;;;;;;5053452;28;20037;-68
2022/11/12 12:58:42;;;;;;;3.97;3.60;;;19.70;63.40;;;;;;5053933;28;20047;-69
2022/11/12 13:01:30;;;;;;;3.33;3.00;;;19.40;63.30;;;;;;5053837;28;20021;-67
2022/11/12 13:04:03;;;;;;;3.40;3.10;;;19.20;64.70;;;;;;5052351;28;20041;-71
2022/11/12 13:06:38;;;;;;;2.80;2.40;;;19.10;64.10;;;;;;5053733;28;20017;-68
2022/11/12 13:09:13;;;;;;;3.17;2.80;;;18.90;65.70;;;;;;5053804;28;20021;-69
2022/11/12 13:14:35;;;;;;;5.38;4.88;;;18.60;66.70;;;;;;5053679;28;20039;-65
2022/11/12 13:17:14;;;;;;;7.10;6.00;;;18.40;66.40;;;;;;5053383;28;20096;-67
2022/11/12 13:19:42;;;;;;;7.10;6.40;;;18.10;67.30;;;;;;5053557;28;20021;-68
2022/11/12 13:22:21;;;;;;;20.08;15.82;;;17.70;70.20;;;;;;5053467;28;20360;-70
2022/11/12 13:25:00;;;;;;;18.15;14.90;;;17.40;73.10;;;;;;5053593;28;20029;-69
2022/11/12 13:27:38;;;;;;;19.05;14.68;;;17.20;81.00;;;;;;5053394;28;20017;-69